Portada
METAR-TAF:

METAR-TAF

Aeroports :

Valença, França

latitud: 44-54-58N, longitud: 4-58-06E, altitud: 160 m

Observació

L'informe es va fer fa 3 hores i 17 minuts, a les 18:00 UTC
Vent 7 kt del Nord, variant entre Nord-Oest i Est/Nord-Est
Temperatura 7°C
Humitat 76%
Pressió 999 hPa
Visibilitat 10 km o més
Cel ennuvolat a una alçada de 6400 ft
Cel cobert a una alçada de 8200 ft

METAR: LFLU 131800Z AUTO 36007KT 310V060 9999 BKN064 OVC082 07/03 Q0999

Hora: 22:17 (21:17 UTC)


TAF: manca

Observacions i pronòstics meteorològics de més de 4000 aeroports (METAR i TAF).

Les estacions disponibles són els punts grocs i vermells al mapa.

Posi el ratolí al punt desitjat per veure el nom de l'estació.

Feu clic per veure les observacions i els pronòstics meteorològics.

Per canviar el mapa: feu clic els botons verds amb una creu de color negre per apropar; al botó verd amb un guió per allunyar la imatge; o en les fletxes verdes per a mapes adjacents.


METAR-TAF: